createdAt,value
2022-11-23T00:00:47.224Z,10.00
2022-11-23T00:02:57.474Z,10.00
2022-11-23T00:04:59.413Z,10.00
2022-11-23T00:07:01.266Z,10.00
2022-11-23T00:09:04.055Z,9.90
2022-11-23T00:11:06.383Z,9.90
2022-11-23T00:13:08.328Z,9.80
2022-11-23T00:15:12.467Z,9.80
2022-11-23T00:17:14.203Z,9.90
2022-11-23T00:19:16.308Z,9.90
2022-11-23T00:21:18.832Z,9.80
2022-11-23T00:23:20.574Z,9.90
2022-11-23T00:25:22.279Z,9.80
2022-11-23T00:27:24.063Z,9.90
2022-11-23T00:29:25.911Z,9.90
2022-11-23T00:31:27.816Z,9.90
2022-11-23T00:33:29.577Z,9.90
2022-11-23T00:35:31.611Z,9.90
2022-11-23T00:37:36.379Z,9.90
2022-11-23T00:39:38.369Z,9.90
2022-11-23T00:41:40.145Z,10.00
2022-11-23T00:43:43.049Z,9.90
2022-11-23T00:45:44.970Z,10.00
2022-11-23T00:47:46.730Z,9.90
2022-11-23T00:49:48.506Z,9.90
2022-11-23T00:51:52.733Z,9.90
2022-11-23T00:53:55.094Z,9.90
2022-11-23T00:56:00.090Z,9.80
2022-11-23T00:58:02.814Z,9.90
2022-11-23T01:00:06.648Z,9.80
2022-11-23T01:02:08.480Z,9.80
2022-11-23T01:04:10.331Z,9.80
2022-11-23T01:06:15.767Z,9.80
2022-11-23T01:08:17.527Z,9.90
2022-11-23T01:10:19.307Z,9.80
2022-11-23T01:12:21.286Z,9.80
2022-11-23T01:14:24.013Z,9.80
2022-11-23T01:16:30.046Z,9.80
2022-11-23T01:18:31.877Z,9.80
2022-11-23T01:20:34.874Z,9.80
2022-11-23T01:22:36.608Z,9.80
2022-11-23T01:24:38.362Z,9.80
2022-11-23T01:26:46.499Z,9.80
2022-11-23T01:28:48.931Z,9.80
2022-11-23T01:30:50.612Z,9.80
2022-11-23T01:32:52.308Z,9.80
2022-11-23T01:34:54.115Z,9.80
2022-11-23T01:36:55.975Z,9.80
2022-11-23T01:38:58.596Z,9.80
2022-11-23T01:41:00.522Z,9.90
2022-11-23T01:43:02.501Z,9.80
2022-11-23T01:45:33.509Z,9.90
2022-11-23T01:47:36.038Z,9.90
2022-11-23T01:49:48.822Z,9.90
2022-11-23T01:51:53.472Z,10.00
2022-11-23T01:54:00.617Z,10.00
2022-11-23T01:56:06.277Z,9.90
2022-11-23T01:58:10.346Z,9.90
2022-11-23T02:00:13.432Z,9.90
2022-11-23T02:02:16.145Z,9.90
2022-11-23T02:04:24.958Z,10.00
2022-11-23T02:06:26.915Z,9.90
2022-11-23T02:08:29.671Z,9.90
2022-11-23T02:10:32.076Z,9.90
2022-11-23T02:12:33.809Z,10.00
2022-11-23T02:14:35.567Z,10.00
2022-11-23T02:16:38.697Z,10.00
2022-11-23T02:18:44.680Z,10.00
2022-11-23T02:20:46.593Z,10.00
2022-11-23T02:23:04.081Z,10.00
2022-11-23T02:25:18.325Z,10.10
2022-11-23T02:27:21.634Z,10.10
2022-11-23T02:29:26.947Z,10.00
2022-11-23T02:31:28.900Z,10.10
2022-11-23T02:33:31.255Z,10.10
2022-11-23T02:35:33.998Z,10.00
2022-11-23T02:37:35.729Z,10.10
2022-11-23T02:39:41.929Z,10.00
2022-11-23T02:41:48.634Z,10.00
2022-11-23T02:43:54.770Z,10.00
2022-11-23T02:46:04.528Z,10.10
2022-11-23T02:48:06.414Z,10.00
2022-11-23T02:50:08.520Z,10.00
2022-11-23T02:52:10.304Z,10.00
2022-11-23T02:54:12.011Z,10.00
2022-11-23T02:56:13.782Z,10.00
2022-11-23T02:58:15.601Z,10.00
2022-11-23T03:00:18.013Z,10.00
2022-11-23T03:02:19.871Z,10.00
2022-11-23T03:04:27.582Z,10.00
2022-11-23T03:06:29.998Z,10.00
2022-11-23T03:08:31.953Z,10.00
2022-11-23T03:10:34.893Z,9.90
2022-11-23T03:12:36.918Z,9.90
2022-11-23T03:14:39.699Z,10.00
2022-11-23T03:16:41.733Z,10.00
2022-11-23T03:18:43.704Z,10.00
2022-11-23T03:20:45.630Z,9.90
2022-11-23T03:22:47.484Z,9.90
2022-11-23T03:24:50.847Z,9.90
2022-11-23T03:26:52.664Z,9.90
2022-11-23T03:28:55.357Z,9.90
2022-11-23T03:31:00.427Z,9.90
2022-11-23T03:33:03.088Z,9.90
2022-11-23T03:35:06.060Z,9.90
2022-11-23T03:37:09.752Z,9.90
2022-11-23T03:39:12.209Z,9.90
2022-11-23T03:41:25.955Z,10.00
2022-11-23T03:43:28.678Z,10.00
2022-11-23T03:45:30.503Z,10.00
2022-11-23T03:47:32.244Z,10.00
2022-11-23T03:49:34.245Z,10.00
2022-11-23T03:51:36.304Z,10.00
2022-11-23T03:53:37.993Z,10.00
2022-11-23T03:55:40.012Z,9.90
2022-11-23T03:57:41.985Z,10.00
2022-11-23T03:59:43.784Z,9.90
2022-11-23T04:01:46.733Z,9.90
2022-11-23T04:03:55.262Z,9.90
2022-11-23T04:06:07.145Z,9.90
2022-11-23T04:08:31.504Z,10.00
2022-11-23T04:10:34.641Z,10.00
2022-11-23T04:12:57.011Z,9.90
2022-11-23T04:14:58.787Z,9.90
2022-11-23T04:17:02.259Z,9.90
2022-11-23T04:19:04.828Z,9.90
2022-11-23T04:21:06.540Z,9.90
2022-11-23T04:23:13.097Z,10.00
2022-11-23T04:25:15.453Z,9.90
2022-11-23T04:27:17.306Z,9.90
2022-11-23T04:29:19.185Z,9.90
2022-11-23T04:31:26.601Z,9.90
2022-11-23T04:33:42.851Z,9.80
2022-11-23T04:35:44.680Z,9.80
2022-11-23T04:37:47.022Z,9.80
2022-11-23T04:39:48.895Z,9.80
2022-11-23T04:41:55.581Z,9.80
2022-11-23T04:43:57.824Z,9.80
2022-11-23T04:45:59.894Z,9.80
2022-11-23T04:48:07.177Z,9.80
2022-11-23T04:50:10.420Z,9.80
2022-11-23T04:52:12.478Z,9.80
2022-11-23T04:54:20.070Z,9.80
2022-11-23T04:56:27.878Z,9.80
2022-11-23T04:58:33.148Z,9.80
2022-11-23T05:00:36.550Z,9.80
2022-11-23T05:02:40.251Z,9.80
2022-11-23T05:04:57.419Z,9.80
2022-11-23T05:07:03.475Z,9.80
2022-11-23T05:09:06.669Z,9.80
2022-11-23T05:11:27.080Z,9.80
2022-11-23T05:13:31.609Z,9.80
2022-11-23T05:15:33.586Z,9.80
2022-11-23T05:17:35.992Z,9.80
2022-11-23T05:19:40.169Z,9.80
2022-11-23T05:21:44.259Z,9.70
2022-11-23T05:23:46.599Z,9.80
2022-11-23T05:25:48.972Z,9.70
2022-11-23T05:27:55.337Z,9.70
2022-11-23T05:29:57.134Z,9.70
2022-11-23T05:31:59.164Z,9.70
2022-11-23T05:34:01.063Z,9.70
2022-11-23T05:36:14.064Z,9.60
2022-11-23T05:38:17.346Z,9.60
2022-11-23T05:40:19.167Z,9.60
2022-11-23T05:42:22.582Z,9.60
2022-11-23T05:44:26.416Z,9.70
2022-11-23T05:46:28.750Z,9.60
2022-11-23T05:48:30.619Z,9.60
2022-11-23T05:50:33.189Z,9.50
2022-11-23T05:52:59.418Z,9.50
2022-11-23T05:55:01.540Z,9.60
2022-11-23T05:57:04.587Z,9.50
2022-11-23T05:59:15.199Z,9.50
2022-11-23T06:01:23.183Z,9.50
2022-11-23T06:03:26.912Z,9.50
2022-11-23T06:05:30.219Z,9.50
2022-11-23T06:07:34.072Z,9.60
2022-11-23T06:09:41.376Z,9.50
2022-11-23T06:11:45.188Z,9.50
2022-11-23T06:13:51.649Z,9.50
2022-11-23T06:15:54.718Z,9.50
2022-11-23T06:18:03.638Z,9.50
2022-11-23T06:20:14.298Z,9.50
2022-11-23T06:22:19.631Z,9.50
2022-11-23T06:24:31.362Z,9.50
2022-11-23T06:26:56.142Z,9.60
2022-11-23T06:28:58.277Z,9.50
2022-11-23T06:31:05.873Z,9.40
2022-11-23T06:33:10.243Z,9.30
2022-11-23T06:35:18.130Z,9.30
2022-11-23T06:37:20.194Z,9.30
2022-11-23T06:39:26.965Z,9.20
2022-11-23T06:41:32.351Z,9.20
2022-11-23T06:43:36.432Z,9.40
2022-11-23T06:45:38.465Z,9.10
2022-11-23T06:47:46.794Z,9.10
2022-11-23T06:49:49.121Z,9.10
2022-11-23T06:51:59.672Z,9.30
2022-11-23T06:54:01.573Z,9.00
2022-11-23T06:56:03.728Z,9.00
2022-11-23T06:58:07.695Z,9.00
2022-11-23T07:00:11.227Z,9.00
2022-11-23T07:02:14.818Z,9.00
2022-11-23T07:04:17.240Z,9.00
2022-11-23T07:06:23.720Z,9.00
2022-11-23T07:08:28.507Z,8.90
2022-11-23T07:10:32.985Z,8.90
2022-11-23T07:12:35.993Z,8.80
2022-11-23T07:14:37.837Z,8.80
2022-11-23T07:16:39.548Z,8.90
2022-11-23T07:18:41.435Z,8.80
2022-11-23T07:20:43.316Z,8.90
2022-11-23T07:22:45.203Z,8.80
2022-11-23T07:24:47.205Z,8.80
2022-11-23T07:26:49.978Z,8.80
2022-11-23T07:28:51.791Z,8.80
2022-11-23T07:30:53.602Z,8.70
2022-11-23T07:33:05.046Z,8.70
2022-11-23T07:35:07.255Z,8.70
2022-11-23T07:37:11.993Z,8.70
2022-11-23T07:39:14.408Z,8.60
2022-11-23T07:41:16.223Z,8.70
2022-11-23T07:43:38.181Z,8.80
2022-11-23T07:45:42.384Z,8.70
2022-11-23T07:47:48.826Z,8.60
2022-11-23T07:49:50.608Z,8.60
2022-11-23T07:51:53.674Z,8.60
2022-11-23T07:53:55.516Z,8.60
2022-11-23T07:56:00.879Z,8.60
2022-11-23T07:58:03.783Z,8.60
2022-11-23T08:00:06.309Z,8.60
2022-11-23T08:02:15.730Z,8.50
2022-11-23T08:04:17.507Z,8.50
2022-11-23T08:06:19.245Z,8.50
2022-11-23T08:08:20.981Z,8.40
2022-11-23T08:10:23.000Z,8.40
2022-11-23T08:12:24.732Z,8.30
2022-11-23T08:14:26.517Z,8.30
2022-11-23T08:16:28.324Z,8.30
2022-11-23T08:18:30.282Z,8.30
2022-11-23T08:20:33.270Z,8.30
2022-11-23T08:22:35.257Z,8.30
2022-11-23T08:24:37.032Z,8.30
2022-11-23T08:26:38.907Z,8.40
2022-11-23T08:28:40.700Z,8.30
2022-11-23T08:30:42.678Z,8.30
2022-11-23T08:32:44.419Z,8.40
2022-11-23T08:34:46.111Z,8.30
2022-11-23T08:36:50.808Z,8.40
2022-11-23T08:38:54.128Z,8.40
2022-11-23T08:41:02.925Z,8.40
2022-11-23T08:43:06.419Z,8.50
2022-11-23T08:45:08.816Z,8.50
2022-11-23T08:47:10.689Z,8.50
2022-11-23T08:49:12.479Z,8.50
2022-11-23T08:51:14.338Z,8.50
2022-11-23T08:53:16.210Z,8.50
2022-11-23T08:55:18.192Z,8.50
2022-11-23T08:57:19.900Z,8.50
2022-11-23T08:59:21.722Z,8.50
2022-11-23T09:01:23.868Z,8.50
2022-11-23T09:03:25.624Z,8.50
2022-11-23T09:05:29.109Z,8.50
2022-11-23T09:07:32.331Z,8.50
2022-11-23T09:09:34.143Z,8.60
2022-11-23T09:11:35.888Z,8.60
2022-11-23T09:13:38.234Z,8.60
2022-11-23T09:15:40.142Z,8.60
2022-11-23T09:17:42.227Z,8.60
2022-11-23T09:19:44.095Z,8.60
2022-11-23T09:21:45.945Z,8.60
2022-11-23T09:23:47.651Z,8.60
2022-11-23T09:25:50.177Z,8.60
2022-11-23T09:27:58.994Z,8.70
2022-11-23T09:30:00.744Z,8.80
2022-11-23T09:32:03.337Z,8.80
2022-11-23T09:34:05.185Z,8.80
2022-11-23T09:36:07.333Z,8.80
2022-11-23T09:38:09.063Z,8.80
2022-11-23T09:40:17.334Z,8.90
2022-11-23T09:42:51.581Z,8.90
2022-11-23T09:45:15.206Z,9.00
2022-11-23T09:47:40.992Z,9.00
2022-11-23T09:50:23.857Z,9.10
2022-11-23T09:52:25.849Z,9.10
2022-11-23T09:54:32.326Z,9.10
2022-11-23T09:56:36.642Z,9.20
2022-11-23T09:58:41.643Z,9.20
2022-11-23T10:01:09.164Z,9.30
2022-11-23T10:03:15.920Z,9.30
2022-11-23T10:05:20.970Z,9.40
2022-11-23T10:07:40.804Z,9.50
2022-11-23T10:10:12.906Z,9.60
2022-11-23T10:12:56.068Z,9.70
2022-11-23T10:15:11.067Z,9.70
2022-11-23T10:17:54.753Z,9.80
2022-11-23T10:20:19.365Z,9.90
2022-11-23T10:22:30.257Z,10.00
2022-11-23T10:24:38.536Z,10.10
2022-11-23T10:26:43.997Z,10.10
2022-11-23T10:28:47.530Z,10.30
2022-11-23T10:31:01.322Z,10.40
2022-11-23T10:33:11.009Z,10.40
2022-11-23T10:35:34.214Z,10.40
2022-11-23T10:37:39.948Z,10.60
2022-11-23T10:39:41.936Z,10.60
2022-11-23T10:41:45.149Z,10.70
2022-11-23T10:44:01.961Z,10.80
2022-11-23T10:46:23.016Z,10.90
2022-11-23T10:48:44.788Z,11.00
2022-11-23T10:50:47.408Z,11.10
2022-11-23T10:53:00.391Z,11.10
2022-11-23T10:55:06.358Z,11.20
2022-11-23T10:57:33.621Z,11.30
2022-11-23T10:59:38.181Z,11.40
2022-11-23T11:01:40.096Z,11.50
2022-11-23T11:03:42.416Z,11.50
2022-11-23T11:06:08.693Z,11.60
2022-11-23T11:08:18.011Z,11.60
2022-11-23T11:10:42.389Z,11.70
2022-11-23T11:12:51.536Z,11.70
2022-11-23T11:15:10.793Z,11.80
2022-11-23T11:17:27.939Z,11.70
2022-11-23T11:19:32.040Z,11.70
2022-11-23T11:21:35.861Z,11.80
2022-11-23T11:23:40.704Z,11.80
2022-11-23T11:25:42.810Z,11.80
2022-11-23T11:27:52.258Z,11.90
2022-11-23T11:29:57.629Z,12.00
2022-11-23T11:32:24.980Z,11.90
2022-11-23T11:34:30.654Z,12.00
2022-11-23T11:36:43.721Z,12.10
2022-11-23T11:39:14.906Z,12.10
2022-11-23T11:41:16.736Z,12.10
2022-11-23T11:43:39.449Z,12.10
2022-11-23T11:46:27.867Z,12.10
2022-11-23T11:48:22.738Z,12.10
2022-11-23T11:50:32.319Z,12.00
2022-11-23T11:52:39.255Z,12.00
2022-11-23T11:54:51.880Z,12.00
2022-11-23T11:57:03.915Z,12.00
2022-11-23T11:59:16.150Z,12.00
2022-11-23T12:01:33.340Z,12.00
2022-11-23T12:03:47.017Z,11.90
2022-11-23T12:05:52.161Z,12.00
2022-11-23T12:08:05.765Z,12.00
2022-11-23T12:10:13.966Z,12.10
2022-11-23T12:12:18.737Z,12.20
2022-11-23T12:14:21.345Z,12.30
2022-11-23T12:17:04.104Z,12.40
2022-11-23T12:19:42.167Z,12.60
2022-11-23T12:22:08.672Z,12.60
2022-11-23T12:24:39.108Z,12.70
2022-11-23T12:27:02.485Z,12.80
2022-11-23T12:29:04.214Z,12.90
2022-11-23T12:31:17.838Z,12.90
2022-11-23T12:33:38.368Z,13.00
2022-11-23T12:35:58.108Z,13.00
2022-11-23T12:38:31.009Z,13.20
2022-11-23T12:41:21.595Z,13.20
2022-11-23T12:43:36.730Z,13.30
2022-11-23T12:46:15.644Z,13.40
2022-11-23T12:48:26.318Z,13.50
2022-11-23T12:50:43.712Z,13.50
2022-11-23T12:53:17.074Z,13.50
2022-11-23T12:55:41.917Z,13.50
2022-11-23T12:58:00.604Z,13.60
2022-11-23T13:00:02.552Z,13.50
2022-11-23T13:02:09.585Z,13.50
2022-11-23T13:04:30.410Z,13.40
2022-11-23T13:07:28.042Z,13.40
2022-11-23T13:10:00.915Z,13.30
2022-11-23T13:12:21.549Z,13.20
2022-11-23T13:14:44.208Z,13.10
2022-11-23T13:17:13.637Z,13.10
2022-11-23T13:19:23.805Z,13.00
2022-11-23T13:21:36.155Z,12.90
2022-11-23T13:23:39.075Z,12.90
2022-11-23T13:25:40.822Z,12.80
2022-11-23T13:27:58.576Z,12.80
2022-11-23T13:30:08.664Z,12.70
2022-11-23T13:32:38.272Z,12.70
2022-11-23T13:34:46.974Z,12.70
2022-11-23T13:37:17.099Z,12.70
2022-11-23T13:39:52.810Z,12.80
2022-11-23T13:42:01.626Z,12.80
2022-11-23T13:44:18.513Z,12.80
2022-11-23T13:46:29.071Z,12.90
2022-11-23T13:50:53.078Z,12.90
2022-11-23T13:52:55.112Z,12.90
2022-11-23T13:55:07.475Z,12.90
2022-11-23T13:57:13.298Z,12.80
2022-11-23T13:59:24.348Z,12.80
2022-11-23T14:02:00.428Z,12.80
2022-11-23T14:04:25.676Z,12.70
2022-11-23T14:06:44.894Z,12.70
2022-11-23T14:08:48.207Z,12.60
2022-11-23T14:10:51.078Z,12.50
2022-11-23T14:13:19.917Z,12.50
2022-11-23T14:15:24.994Z,12.50
2022-11-23T14:17:35.651Z,12.40
2022-11-23T14:19:53.802Z,12.40
2022-11-23T14:22:22.255Z,12.40
2022-11-23T14:24:51.491Z,12.30
2022-11-23T14:27:04.131Z,12.30
2022-11-23T14:30:01.224Z,12.30
2022-11-23T14:32:09.154Z,12.30
2022-11-23T14:34:32.957Z,12.30
2022-11-23T14:36:54.020Z,12.20
2022-11-23T14:38:55.732Z,12.10
2022-11-23T14:41:08.202Z,12.10
2022-11-23T14:43:17.313Z,12.10
2022-11-23T14:45:22.702Z,12.00
2022-11-23T14:47:29.232Z,11.90
2022-11-23T14:49:31.540Z,11.80
2022-11-23T14:51:36.341Z,11.80
2022-11-23T14:53:46.934Z,11.70
2022-11-23T14:55:50.379Z,11.60
2022-11-23T14:57:56.832Z,11.50
2022-11-23T15:00:01.843Z,11.40
2022-11-23T15:02:19.934Z,11.30
2022-11-23T15:04:38.171Z,11.20
2022-11-23T15:06:46.153Z,11.20
2022-11-23T15:09:17.964Z,11.10
2022-11-23T15:11:27.975Z,11.00
2022-11-23T15:13:43.278Z,11.00
2022-11-23T15:15:45.494Z,10.90
2022-11-23T15:17:58.308Z,10.70
2022-11-23T15:20:01.871Z,10.70
2022-11-23T15:22:04.137Z,10.80
2022-11-23T15:24:06.133Z,10.60
2022-11-23T15:26:41.786Z,10.60
2022-11-23T15:28:40.296Z,10.60
2022-11-23T15:30:42.274Z,10.50
2022-11-23T15:32:44.603Z,10.40
2022-11-23T15:34:47.893Z,10.40
2022-11-23T15:36:50.629Z,10.30
2022-11-23T15:38:53.805Z,10.30
2022-11-23T15:41:05.564Z,10.30
2022-11-23T15:43:16.965Z,10.30
2022-11-23T15:45:44.325Z,10.30
2022-11-23T15:47:46.097Z,10.30
2022-11-23T15:49:47.984Z,10.30
2022-11-23T15:51:52.481Z,10.30
2022-11-23T15:53:55.007Z,10.20
2022-11-23T15:56:05.535Z,10.20
2022-11-23T15:58:10.096Z,10.20
2022-11-23T16:00:25.073Z,10.20
2022-11-23T16:02:30.884Z,10.20
2022-11-23T16:04:38.965Z,10.20
2022-11-23T16:06:42.426Z,10.20
2022-11-23T16:08:44.838Z,10.20
2022-11-23T16:10:54.682Z,10.20
2022-11-23T16:12:59.488Z,10.20
2022-11-23T16:15:38.501Z,10.20
2022-11-23T16:17:44.555Z,10.20
2022-11-23T16:19:48.585Z,10.20
2022-11-23T16:21:56.621Z,10.10
2022-11-23T16:24:02.624Z,10.10
2022-11-23T16:26:05.835Z,10.10
2022-11-23T16:28:17.900Z,10.10
2022-11-23T16:30:26.573Z,10.10
2022-11-23T16:32:31.104Z,10.00
2022-11-23T16:34:33.645Z,10.00
2022-11-23T16:36:35.700Z,10.00
2022-11-23T16:38:37.466Z,9.90
2022-11-23T16:40:40.218Z,9.90
2022-11-23T16:42:42.277Z,9.90
2022-11-23T16:44:44.455Z,9.90
2022-11-23T16:46:47.699Z,9.90
2022-11-23T16:48:49.695Z,9.90
2022-11-23T16:50:52.630Z,9.90
2022-11-23T16:52:54.680Z,9.80
2022-11-23T16:54:56.746Z,9.80
2022-11-23T16:56:58.472Z,9.90
2022-11-23T16:59:00.286Z,9.80
2022-11-23T17:01:02.692Z,9.80
2022-11-23T17:03:04.532Z,9.80
2022-11-23T17:05:18.980Z,9.90
2022-11-23T17:07:20.789Z,9.90
2022-11-23T17:09:22.694Z,9.90
2022-11-23T17:11:26.228Z,9.80
2022-11-23T17:13:29.461Z,9.80
2022-11-23T17:15:31.238Z,9.80
2022-11-23T17:17:33.541Z,9.80
2022-11-23T17:19:35.661Z,9.80
2022-11-23T17:21:37.634Z,9.80
2022-11-23T17:23:42.951Z,9.80
2022-11-23T17:25:44.773Z,9.90
2022-11-23T17:27:46.771Z,9.90
2022-11-23T17:29:55.512Z,9.90
2022-11-23T17:31:57.371Z,9.90
2022-11-23T17:33:59.514Z,9.90
2022-11-23T17:36:01.303Z,9.90
2022-11-23T17:38:03.694Z,9.90
2022-11-23T17:40:13.559Z,9.90
2022-11-23T17:42:15.979Z,9.90
2022-11-23T17:44:18.017Z,9.90
2022-11-23T17:46:24.054Z,9.90
2022-11-23T17:48:25.981Z,9.90
2022-11-23T17:50:28.758Z,10.00
2022-11-23T17:52:30.907Z,10.00
2022-11-23T17:54:32.682Z,10.00
2022-11-23T17:56:35.059Z,10.00
2022-11-23T17:58:36.842Z,10.00
2022-11-23T18:00:39.098Z,10.00
2022-11-23T18:02:40.965Z,10.10
2022-11-23T18:04:42.751Z,10.00
2022-11-23T18:06:44.529Z,10.00
2022-11-23T18:08:47.802Z,10.00
2022-11-23T18:10:49.545Z,10.00
2022-11-23T18:12:51.520Z,10.00
2022-11-23T18:14:53.377Z,10.00
2022-11-23T18:16:56.293Z,10.10
2022-11-23T18:18:58.286Z,10.10
2022-11-23T18:21:00.689Z,10.10
2022-11-23T18:23:02.638Z,10.10
2022-11-23T18:25:04.932Z,10.10
2022-11-23T18:27:06.999Z,10.10
2022-11-23T18:29:12.832Z,10.20
2022-11-23T18:31:19.518Z,10.20
2022-11-23T18:33:26.102Z,10.20
2022-11-23T18:35:27.860Z,10.20
2022-11-23T18:37:29.625Z,10.20
2022-11-23T18:39:31.779Z,10.30
2022-11-23T18:41:34.089Z,10.30
2022-11-23T18:43:37.317Z,10.10
2022-11-23T18:45:39.532Z,10.20
2022-11-23T18:47:41.543Z,10.20
2022-11-23T18:49:43.491Z,10.20
2022-11-23T18:51:45.741Z,10.20
2022-11-23T18:53:49.875Z,10.20
2022-11-23T18:55:56.161Z,10.20
2022-11-23T18:58:01.486Z,10.20
2022-11-23T19:00:06.049Z,10.20
2022-11-23T19:02:12.141Z,10.30
2022-11-23T19:04:13.981Z,10.30
2022-11-23T19:06:17.215Z,10.40
2022-11-23T19:08:19.022Z,10.30
2022-11-23T19:10:20.893Z,10.30
2022-11-23T19:12:22.987Z,10.40
2022-11-23T19:14:25.220Z,10.30
2022-11-23T19:16:31.618Z,10.30
2022-11-23T19:18:34.167Z,10.30
2022-11-23T19:20:36.367Z,10.30
2022-11-23T19:22:38.236Z,10.30
2022-11-23T19:24:41.014Z,10.30
2022-11-23T19:26:42.801Z,10.30
2022-11-23T19:28:44.897Z,10.30
2022-11-23T19:30:46.815Z,10.30
2022-11-23T19:32:48.596Z,10.30
2022-11-23T19:34:50.393Z,10.30
2022-11-23T19:36:52.110Z,10.30
2022-11-23T19:38:56.269Z,10.30
2022-11-23T19:40:58.085Z,10.30
2022-11-23T19:43:00.083Z,10.30
2022-11-23T19:45:02.301Z,10.30
2022-11-23T19:47:08.561Z,10.30
2022-11-23T19:49:14.106Z,10.30
2022-11-23T19:51:18.821Z,10.30
2022-11-23T19:53:21.938Z,10.30
2022-11-23T19:55:23.726Z,10.40
2022-11-23T19:57:25.425Z,10.30
2022-11-23T19:59:27.640Z,10.40
2022-11-23T20:01:32.881Z,10.40
2022-11-23T20:03:36.619Z,10.40
2022-11-23T20:05:38.606Z,10.40
2022-11-23T20:07:40.399Z,10.40
2022-11-23T20:09:42.248Z,10.40
2022-11-23T20:11:49.446Z,10.40
2022-11-23T20:13:54.178Z,10.40
2022-11-23T20:16:05.610Z,10.40
2022-11-23T20:18:07.571Z,10.40
2022-11-23T20:20:11.103Z,10.50
2022-11-23T20:22:12.836Z,10.50
2022-11-23T20:24:14.960Z,10.40
2022-11-23T20:26:20.567Z,10.50
2022-11-23T20:28:22.446Z,10.50
2022-11-23T20:30:24.204Z,10.50
2022-11-23T20:32:26.121Z,10.50
2022-11-23T20:34:27.941Z,10.50
2022-11-23T20:36:32.088Z,10.50
2022-11-23T20:38:37.276Z,10.60
2022-11-23T20:40:39.871Z,10.60
2022-11-23T20:42:41.780Z,10.50
2022-11-23T20:44:43.585Z,10.60
2022-11-23T20:47:02.704Z,10.60
2022-11-23T20:49:05.118Z,10.60
2022-11-23T20:51:10.375Z,10.60
2022-11-23T20:53:12.678Z,10.60
2022-11-23T20:55:20.124Z,10.60
2022-11-23T20:57:22.159Z,10.60
2022-11-23T20:59:24.256Z,10.60
2022-11-23T21:01:27.813Z,10.60
2022-11-23T21:03:30.705Z,10.60
2022-11-23T21:05:34.971Z,10.60
2022-11-23T21:07:36.858Z,10.60
2022-11-23T21:09:39.416Z,10.60
2022-11-23T21:11:59.747Z,10.70
2022-11-23T21:14:06.370Z,10.70
2022-11-23T21:16:08.385Z,10.60
2022-11-23T21:18:10.973Z,10.60
2022-11-23T21:20:12.692Z,10.60
2022-11-23T21:22:15.458Z,10.60
2022-11-23T21:24:17.608Z,10.60
2022-11-23T21:26:19.367Z,10.60
2022-11-23T21:28:21.116Z,10.60
2022-11-23T21:30:22.837Z,10.60
2022-11-23T21:32:24.705Z,10.60
2022-11-23T21:34:28.766Z,10.50
2022-11-23T21:36:35.237Z,10.60
2022-11-23T21:38:37.441Z,10.50
2022-11-23T21:40:39.377Z,10.60
2022-11-23T21:42:41.158Z,10.60
2022-11-23T21:44:43.119Z,10.60
2022-11-23T21:46:45.184Z,10.60
2022-11-23T21:48:47.660Z,10.60
2022-11-23T21:51:09.907Z,10.60
2022-11-23T21:53:11.921Z,10.70
2022-11-23T21:55:14.331Z,10.60
2022-11-23T21:57:16.185Z,10.70
2022-11-23T21:59:17.921Z,10.70
2022-11-23T22:01:30.780Z,10.70
2022-11-23T22:03:41.267Z,10.70
2022-11-23T22:05:54.386Z,10.70
2022-11-23T22:08:27.566Z,10.70
2022-11-23T22:10:17.990Z,10.70
2022-11-23T22:12:19.792Z,10.70
2022-11-23T22:14:22.037Z,10.70
2022-11-23T22:16:31.685Z,10.70
2022-11-23T22:18:33.502Z,10.70
2022-11-23T22:20:35.594Z,10.70
2022-11-23T22:22:37.373Z,10.70
2022-11-23T22:24:39.335Z,10.70
2022-11-23T22:26:42.092Z,10.70
2022-11-23T22:28:46.969Z,10.70
2022-11-23T22:30:57.849Z,10.70
2022-11-23T22:32:59.657Z,10.70
2022-11-23T22:35:01.470Z,10.60
2022-11-23T22:37:07.228Z,10.70
2022-11-23T22:39:12.299Z,10.60
2022-11-23T22:41:15.997Z,10.60
2022-11-23T22:43:18.053Z,10.70
2022-11-23T22:45:21.602Z,10.70
2022-11-23T22:47:23.702Z,10.60
2022-11-23T22:49:25.530Z,10.60
2022-11-23T22:51:28.651Z,10.60
2022-11-23T22:53:31.102Z,10.60
2022-11-23T22:55:32.894Z,10.60
2022-11-23T22:57:34.796Z,10.70
2022-11-23T22:59:36.596Z,10.60
2022-11-23T23:01:38.441Z,10.60
2022-11-23T23:03:41.477Z,10.60
2022-11-23T23:05:43.943Z,10.60
2022-11-23T23:07:45.856Z,10.60
2022-11-23T23:09:47.713Z,10.60
2022-11-23T23:11:49.614Z,10.60
2022-11-23T23:13:52.756Z,10.60
2022-11-23T23:16:10.340Z,10.60
2022-11-23T23:18:14.014Z,10.60
2022-11-23T23:20:16.670Z,10.60
2022-11-23T23:22:18.449Z,10.50
2022-11-23T23:24:20.405Z,10.60
2022-11-23T23:26:25.290Z,10.60
2022-11-23T23:28:27.219Z,10.60
2022-11-23T23:30:29.110Z,10.60
2022-11-23T23:32:30.904Z,10.50
2022-11-23T23:34:33.014Z,10.60
2022-11-23T23:36:36.060Z,10.50
2022-11-23T23:38:38.982Z,10.50
2022-11-23T23:40:40.853Z,10.50
2022-11-23T23:42:42.696Z,10.50
2022-11-23T23:44:44.605Z,10.50
2022-11-23T23:46:46.484Z,10.60
2022-11-23T23:48:48.256Z,10.50
2022-11-23T23:50:50.662Z,10.50
2022-11-23T23:52:52.466Z,10.60
2022-11-23T23:54:54.278Z,10.50
2022-11-23T23:56:56.096Z,10.50
2022-11-23T23:59:00.056Z,10.60
